sensor_id;sensor_type;location;lat;lon;timestamp;temperature;humidity
4725;DHT22;2376;53.544;10.226;2022-12-22T00:01:55;9.60;99.90
4725;DHT22;2376;53.544;10.226;2022-12-22T00:04:42;9.60;99.90
4725;DHT22;2376;53.544;10.226;2022-12-22T00:07:27;9.70;99.90
4725;DHT22;2376;53.544;10.226;2022-12-22T00:10:11;9.70;99.90
4725;DHT22;2376;53.544;10.226;2022-12-22T00:12:56;9.70;99.90
4725;DHT22;2376;53.544;10.226;2022-12-22T00:15:40;9.70;99.90
4725;DHT22;2376;53.544;10.226;2022-12-22T00:18:25;9.70;99.90
4725;DHT22;2376;53.544;10.226;2022-12-22T00:21:11;9.70;99.90
4725;DHT22;2376;53.544;10.226;2022-12-22T00:23:56;9.70;99.90
4725;DHT22;2376;53.544;10.226;2022-12-22T00:26:40;9.70;99.90
4725;DHT22;2376;53.544;10.226;2022-12-22T00:29:26;9.70;99.90
4725;DHT22;2376;53.544;10.226;2022-12-22T00:32:13;9.60;99.90
4725;DHT22;2376;53.544;10.226;2022-12-22T00:34:59;9.60;99.90
4725;DHT22;2376;53.544;10.226;2022-12-22T00:37:43;9.60;99.90
4725;DHT22;2376;53.544;10.226;2022-12-22T00:40:27;9.60;99.90
4725;DHT22;2376;53.544;10.226;2022-12-22T00:43:16;9.60;99.90
4725;DHT22;2376;53.544;10.226;2022-12-22T00:46:07;9.70;99.90
4725;DHT22;2376;53.544;10.226;2022-12-22T00:48:54;9.70;99.90
4725;DHT22;2376;53.544;10.226;2022-12-22T00:51:39;9.70;99.90
4725;DHT22;2376;53.544;10.226;2022-12-22T00:54:23;9.60;99.90
4725;DHT22;2376;53.544;10.226;2022-12-22T00:57:14;9.60;99.90
4725;DHT22;2376;53.544;10.226;2022-12-22T00:59:59;9.60;99.90
4725;DHT22;2376;53.544;10.226;2022-12-22T01:02:43;9.60;99.90
4725;DHT22;2376;53.544;10.226;2022-12-22T01:05:27;9.70;99.90
4725;DHT22;2376;53.544;10.226;2022-12-22T01:08:13;9.70;99.90
4725;DHT22;2376;53.544;10.226;2022-12-22T01:10:57;9.70;99.90
4725;DHT22;2376;53.544;10.226;2022-12-22T01:13:41;9.70;99.90
4725;DHT22;2376;53.544;10.226;2022-12-22T01:16:25;9.70;99.90
4725;DHT22;2376;53.544;10.226;2022-12-22T01:19:09;9.70;99.90
4725;DHT22;2376;53.544;10.226;2022-12-22T01:21:55;9.70;99.90
4725;DHT22;2376;53.544;10.226;2022-12-22T01:24:41;9.70;99.90
4725;DHT22;2376;53.544;10.226;2022-12-22T01:27:25;9.80;99.90
4725;DHT22;2376;53.544;10.226;2022-12-22T01:30:09;9.70;99.90
4725;DHT22;2376;53.544;10.226;2022-12-22T01:32:54;9.80;99.90
4725;DHT22;2376;53.544;10.226;2022-12-22T01:35:38;9.80;99.90
4725;DHT22;2376;53.544;10.226;2022-12-22T01:38:22;9.70;99.90
4725;DHT22;2376;53.544;10.226;2022-12-22T01:41:13;9.70;99.90
4725;DHT22;2376;53.544;10.226;2022-12-22T01:43:58;9.70;99.90
4725;DHT22;2376;53.544;10.226;2022-12-22T01:46:44;9.80;99.90
4725;DHT22;2376;53.544;10.226;2022-12-22T01:49:34;9.80;99.90
4725;DHT22;2376;53.544;10.226;2022-12-22T01:52:22;9.80;99.90
4725;DHT22;2376;53.544;10.226;2022-12-22T01:55:10;9.80;99.90
4725;DHT22;2376;53.544;10.226;2022-12-22T01:57:56;9.70;99.90
4725;DHT22;2376;53.544;10.226;2022-12-22T02:00:42;9.70;99.90
4725;DHT22;2376;53.544;10.226;2022-12-22T02:03:27;9.70;99.90
4725;DHT22;2376;53.544;10.226;2022-12-22T02:06:16;9.80;99.90
4725;DHT22;2376;53.544;10.226;2022-12-22T02:09:18;9.70;99.90
4725;DHT22;2376;53.544;10.226;2022-12-22T02:12:10;9.70;99.90
4725;DHT22;2376;53.544;10.226;2022-12-22T02:15:04;9.70;99.90
4725;DHT22;2376;53.544;10.226;2022-12-22T02:17:59;9.70;99.90
4725;DHT22;2376;53.544;10.226;2022-12-22T02:20:48;9.70;99.90
4725;DHT22;2376;53.544;10.226;2022-12-22T02:23:56;9.70;99.90
4725;DHT22;2376;53.544;10.226;2022-12-22T02:26:51;9.70;99.90
4725;DHT22;2376;53.544;10.226;2022-12-22T02:29:40;9.70;99.90
4725;DHT22;2376;53.544;10.226;2022-12-22T02:32:26;9.70;99.90
4725;DHT22;2376;53.544;10.226;2022-12-22T02:35:12;9.80;99.90
4725;DHT22;2376;53.544;10.226;2022-12-22T02:38:02;9.80;99.90
4725;DHT22;2376;53.544;10.226;2022-12-22T02:40:56;9.80;99.90
4725;DHT22;2376;53.544;10.226;2022-12-22T02:43:56;9.80;99.90
4725;DHT22;2376;53.544;10.226;2022-12-22T02:46:52;9.80;99.90
4725;DHT22;2376;53.544;10.226;2022-12-22T02:49:40;9.80;99.90
4725;DHT22;2376;53.544;10.226;2022-12-22T02:52:28;9.80;99.90
4725;DHT22;2376;53.544;10.226;2022-12-22T02:55:14;9.70;99.90
4725;DHT22;2376;53.544;10.226;2022-12-22T02:57:59;9.80;99.90
4725;DHT22;2376;53.544;10.226;2022-12-22T03:00:45;9.80;99.90
4725;DHT22;2376;53.544;10.226;2022-12-22T03:03:30;9.80;99.90
4725;DHT22;2376;53.544;10.226;2022-12-22T03:06:14;9.80;99.90
4725;DHT22;2376;53.544;10.226;2022-12-22T03:08:58;9.80;99.90
4725;DHT22;2376;53.544;10.226;2022-12-22T03:11:42;9.80;99.90
4725;DHT22;2376;53.544;10.226;2022-12-22T03:14:26;9.80;99.90
4725;DHT22;2376;53.544;10.226;2022-12-22T03:17:12;9.70;99.90
4725;DHT22;2376;53.544;10.226;2022-12-22T03:19:56;9.70;99.90
4725;DHT22;2376;53.544;10.226;2022-12-22T03:22:40;9.80;99.90
4725;DHT22;2376;53.544;10.226;2022-12-22T03:25:24;9.70;99.90
4725;DHT22;2376;53.544;10.226;2022-12-22T03:28:08;9.70;99.90
4725;DHT22;2376;53.544;10.226;2022-12-22T03:30:36;9.80;99.90
4725;DHT22;2376;53.544;10.226;2022-12-22T03:33:04;9.80;99.90
4725;DHT22;2376;53.544;10.226;2022-12-22T03:35:31;9.80;99.90
4725;DHT22;2376;53.544;10.226;2022-12-22T03:37:57;9.90;99.90
4725;DHT22;2376;53.544;10.226;2022-12-22T03:40:28;9.90;99.90
4725;DHT22;2376;53.544;10.226;2022-12-22T03:42:54;10.00;99.90
4725;DHT22;2376;53.544;10.226;2022-12-22T03:45:38;10.00;99.90
4725;DHT22;2376;53.544;10.226;2022-12-22T03:48:24;9.90;99.90
4725;DHT22;2376;53.544;10.226;2022-12-22T03:50:51;9.90;99.90
4725;DHT22;2376;53.544;10.226;2022-12-22T03:53:17;9.90;99.90
4725;DHT22;2376;53.544;10.226;2022-12-22T03:55:44;10.00;99.90
4725;DHT22;2376;53.544;10.226;2022-12-22T03:58:11;10.00;99.90
4725;DHT22;2376;53.544;10.226;2022-12-22T04:00:37;10.00;99.90
4725;DHT22;2376;53.544;10.226;2022-12-22T04:03:04;9.90;99.90
4725;DHT22;2376;53.544;10.226;2022-12-22T04:05:32;9.90;99.90
4725;DHT22;2376;53.544;10.226;2022-12-22T04:07:59;9.90;99.90
4725;DHT22;2376;53.544;10.226;2022-12-22T04:10:25;10.00;99.90
4725;DHT22;2376;53.544;10.226;2022-12-22T04:13:09;10.00;99.90
4725;DHT22;2376;53.544;10.226;2022-12-22T04:15:36;10.00;99.90
4725;DHT22;2376;53.544;10.226;2022-12-22T04:18:03;10.00;99.90
4725;DHT22;2376;53.544;10.226;2022-12-22T04:20:29;10.00;99.90
4725;DHT22;2376;53.544;10.226;2022-12-22T04:22:58;10.00;99.90
4725;DHT22;2376;53.544;10.226;2022-12-22T04:25:25;10.00;99.90
4725;DHT22;2376;53.544;10.226;2022-12-22T04:27:52;9.90;99.90
4725;DHT22;2376;53.544;10.226;2022-12-22T04:30:19;10.00;99.90
4725;DHT22;2376;53.544;10.226;2022-12-22T04:32:46;10.10;99.90
4725;DHT22;2376;53.544;10.226;2022-12-22T04:35:12;10.10;99.90
4725;DHT22;2376;53.544;10.226;2022-12-22T04:37:39;10.10;99.90
4725;DHT22;2376;53.544;10.226;2022-12-22T04:40:08;10.10;99.90
4725;DHT22;2376;53.544;10.226;2022-12-22T04:42:34;10.10;99.90
4725;DHT22;2376;53.544;10.226;2022-12-22T04:45:01;10.10;99.90
4725;DHT22;2376;53.544;10.226;2022-12-22T04:47:28;10.20;99.90
4725;DHT22;2376;53.544;10.226;2022-12-22T04:49:54;10.10;99.90
4725;DHT22;2376;53.544;10.226;2022-12-22T04:52:21;10.10;99.90
4725;DHT22;2376;53.544;10.226;2022-12-22T04:54:48;10.00;99.90
4725;DHT22;2376;53.544;10.226;2022-12-22T04:57:16;10.10;99.90
4725;DHT22;2376;53.544;10.226;2022-12-22T04:59:43;10.10;99.90
4725;DHT22;2376;53.544;10.226;2022-12-22T05:02:10;10.10;99.90
4725;DHT22;2376;53.544;10.226;2022-12-22T05:04:36;10.10;99.90
4725;DHT22;2376;53.544;10.226;2022-12-22T05:07:03;10.10;99.90
4725;DHT22;2376;53.544;10.226;2022-12-22T05:09:32;10.10;99.90
4725;DHT22;2376;53.544;10.226;2022-12-22T05:11:59;10.10;99.90
4725;DHT22;2376;53.544;10.226;2022-12-22T05:14:47;10.10;99.90
4725;DHT22;2376;53.544;10.226;2022-12-22T05:17:14;10.10;99.90
4725;DHT22;2376;53.544;10.226;2022-12-22T05:19:40;10.00;99.90
4725;DHT22;2376;53.544;10.226;2022-12-22T05:22:07;10.00;99.90
4725;DHT22;2376;53.544;10.226;2022-12-22T05:24:34;10.00;99.90
4725;DHT22;2376;53.544;10.226;2022-12-22T05:27:00;10.00;99.90
4725;DHT22;2376;53.544;10.226;2022-12-22T05:29:27;10.00;99.90
4725;DHT22;2376;53.544;10.226;2022-12-22T05:31:55;10.10;99.90
4725;DHT22;2376;53.544;10.226;2022-12-22T05:34:21;10.10;99.90
4725;DHT22;2376;53.544;10.226;2022-12-22T05:36:48;10.10;99.90
4725;DHT22;2376;53.544;10.226;2022-12-22T05:39:15;10.20;99.90
4725;DHT22;2376;53.544;10.226;2022-12-22T05:41:41;10.10;99.90
4725;DHT22;2376;53.544;10.226;2022-12-22T05:44:08;10.10;99.90
4725;DHT22;2376;53.544;10.226;2022-12-22T05:46:35;10.10;99.90
4725;DHT22;2376;53.544;10.226;2022-12-22T05:49:03;10.10;99.90
4725;DHT22;2376;53.544;10.226;2022-12-22T05:51:29;10.10;99.90
4725;DHT22;2376;53.544;10.226;2022-12-22T05:53:56;10.20;99.90
4725;DHT22;2376;53.544;10.226;2022-12-22T05:56:22;10.10;99.90
4725;DHT22;2376;53.544;10.226;2022-12-22T05:58:49;10.00;99.90
4725;DHT22;2376;53.544;10.226;2022-12-22T06:01:16;10.10;99.90
4725;DHT22;2376;53.544;10.226;2022-12-22T06:03:42;10.10;99.90
4725;DHT22;2376;53.544;10.226;2022-12-22T06:06:10;10.10;99.90
4725;DHT22;2376;53.544;10.226;2022-12-22T06:08:37;10.10;99.90
4725;DHT22;2376;53.544;10.226;2022-12-22T06:11:04;10.00;99.90
4725;DHT22;2376;53.544;10.226;2022-12-22T06:13:30;10.00;99.90
4725;DHT22;2376;53.544;10.226;2022-12-22T06:15:57;9.90;99.90
4725;DHT22;2376;53.544;10.226;2022-12-22T06:18:24;9.90;99.90
4725;DHT22;2376;53.544;10.226;2022-12-22T06:20:51;10.00;99.90
4725;DHT22;2376;53.544;10.226;2022-12-22T06:23:19;10.00;99.90
4725;DHT22;2376;53.544;10.226;2022-12-22T06:25:53;10.10;99.90
4725;DHT22;2376;53.544;10.226;2022-12-22T06:28:20;10.10;99.90
4725;DHT22;2376;53.544;10.226;2022-12-22T06:30:47;10.20;99.90
4725;DHT22;2376;53.544;10.226;2022-12-22T06:33:13;10.20;99.90
4725;DHT22;2376;53.544;10.226;2022-12-22T06:35:40;10.20;99.90
4725;DHT22;2376;53.544;10.226;2022-12-22T06:38:07;10.20;99.90
4725;DHT22;2376;53.544;10.226;2022-12-22T06:40:35;10.20;99.90
4725;DHT22;2376;53.544;10.226;2022-12-22T06:43:01;10.20;99.90
4725;DHT22;2376;53.544;10.226;2022-12-22T06:45:34;10.20;99.90
4725;DHT22;2376;53.544;10.226;2022-12-22T06:48:01;10.20;99.90
4725;DHT22;2376;53.544;10.226;2022-12-22T06:50:27;10.20;99.90
4725;DHT22;2376;53.544;10.226;2022-12-22T06:52:54;10.20;99.90
4725;DHT22;2376;53.544;10.226;2022-12-22T06:55:20;10.20;99.90
4725;DHT22;2376;53.544;10.226;2022-12-22T06:57:48;10.20;99.90
4725;DHT22;2376;53.544;10.226;2022-12-22T07:00:15;10.30;99.90
4725;DHT22;2376;53.544;10.226;2022-12-22T07:02:42;10.30;99.90
4725;DHT22;2376;53.544;10.226;2022-12-22T07:05:09;10.30;99.90
4725;DHT22;2376;53.544;10.226;2022-12-22T07:07:35;10.30;99.90
4725;DHT22;2376;53.544;10.226;2022-12-22T07:10:04;10.30;99.90
4725;DHT22;2376;53.544;10.226;2022-12-22T07:12:31;10.30;99.90
4725;DHT22;2376;53.544;10.226;2022-12-22T07:14:59;10.30;99.90
4725;DHT22;2376;53.544;10.226;2022-12-22T07:17:26;10.30;99.90
4725;DHT22;2376;53.544;10.226;2022-12-22T07:19:52;10.30;99.90
4725;DHT22;2376;53.544;10.226;2022-12-22T07:22:19;10.30;99.90
4725;DHT22;2376;53.544;10.226;2022-12-22T07:24:45;10.30;99.90
4725;DHT22;2376;53.544;10.226;2022-12-22T07:27:12;10.30;99.90
4725;DHT22;2376;53.544;10.226;2022-12-22T07:29:39;10.20;99.90
4725;DHT22;2376;53.544;10.226;2022-12-22T07:32:07;10.30;99.90
4725;DHT22;2376;53.544;10.226;2022-12-22T07:34:34;10.30;99.90
4725;DHT22;2376;53.544;10.226;2022-12-22T07:37:00;10.30;99.90
4725;DHT22;2376;53.544;10.226;2022-12-22T07:39:27;10.30;99.90
4725;DHT22;2376;53.544;10.226;2022-12-22T07:41:54;10.20;99.90
4725;DHT22;2376;53.544;10.226;2022-12-22T07:44:38;10.30;99.90
4725;DHT22;2376;53.544;10.226;2022-12-22T07:47:04;10.20;99.90
4725;DHT22;2376;53.544;10.226;2022-12-22T07:49:32;10.30;99.90
4725;DHT22;2376;53.544;10.226;2022-12-22T07:52:16;10.20;99.90
4725;DHT22;2376;53.544;10.226;2022-12-22T07:54:43;10.30;99.90
4725;DHT22;2376;53.544;10.226;2022-12-22T07:57:10;10.30;99.90
4725;DHT22;2376;53.544;10.226;2022-12-22T07:59:36;10.20;99.90
4725;DHT22;2376;53.544;10.226;2022-12-22T08:02:03;10.30;99.90
4725;DHT22;2376;53.544;10.226;2022-12-22T08:04:31;10.20;99.90
4725;DHT22;2376;53.544;10.226;2022-12-22T08:06:58;10.30;99.90
4725;DHT22;2376;53.544;10.226;2022-12-22T08:09:24;10.20;99.90
4725;DHT22;2376;53.544;10.226;2022-12-22T08:11:51;10.20;99.90
4725;DHT22;2376;53.544;10.226;2022-12-22T08:14:17;10.30;99.90
4725;DHT22;2376;53.544;10.226;2022-12-22T08:16:44;10.30;99.90
4725;DHT22;2376;53.544;10.226;2022-12-22T08:19:11;10.30;99.90
4725;DHT22;2376;53.544;10.226;2022-12-22T08:21:39;10.30;99.90
4725;DHT22;2376;53.544;10.226;2022-12-22T08:24:06;10.20;99.90
4725;DHT22;2376;53.544;10.226;2022-12-22T08:26:36;10.30;99.90
4725;DHT22;2376;53.544;10.226;2022-12-22T08:29:07;10.30;99.90
4725;DHT22;2376;53.544;10.226;2022-12-22T08:31:34;10.30;99.90
4725;DHT22;2376;53.544;10.226;2022-12-22T08:34:04;10.30;99.90
4725;DHT22;2376;53.544;10.226;2022-12-22T08:36:34;10.30;99.90
4725;DHT22;2376;53.544;10.226;2022-12-22T08:39:03;10.30;99.90
4725;DHT22;2376;53.544;10.226;2022-12-22T08:41:31;10.30;99.90
4725;DHT22;2376;53.544;10.226;2022-12-22T08:44:19;10.30;99.90
4725;DHT22;2376;53.544;10.226;2022-12-22T08:46:46;10.30;99.90
4725;DHT22;2376;53.544;10.226;2022-12-22T08:49:13;10.40;99.90
4725;DHT22;2376;53.544;10.226;2022-12-22T08:51:40;10.40;99.90
4725;DHT22;2376;53.544;10.226;2022-12-22T08:54:09;10.40;99.90
4725;DHT22;2376;53.544;10.226;2022-12-22T08:56:35;10.40;99.90
4725;DHT22;2376;53.544;10.226;2022-12-22T08:59:03;10.40;99.90
4725;DHT22;2376;53.544;10.226;2022-12-22T09:01:33;10.40;99.90
4725;DHT22;2376;53.544;10.226;2022-12-22T09:04:00;10.40;99.90
4725;DHT22;2376;53.544;10.226;2022-12-22T09:06:27;10.40;99.90
4725;DHT22;2376;53.544;10.226;2022-12-22T09:08:54;10.40;99.90
4725;DHT22;2376;53.544;10.226;2022-12-22T09:11:23;10.40;99.90
4725;DHT22;2376;53.544;10.226;2022-12-22T09:13:51;10.40;99.90
4725;DHT22;2376;53.544;10.226;2022-12-22T09:16:19;10.40;99.90
4725;DHT22;2376;53.544;10.226;2022-12-22T09:18:46;10.40;99.90
4725;DHT22;2376;53.544;10.226;2022-12-22T09:21:13;10.40;99.90
4725;DHT22;2376;53.544;10.226;2022-12-22T09:23:40;10.40;99.90
4725;DHT22;2376;53.544;10.226;2022-12-22T09:26:07;10.40;99.90
4725;DHT22;2376;53.544;10.226;2022-12-22T09:28:36;10.40;99.90
4725;DHT22;2376;53.544;10.226;2022-12-22T09:31:03;10.40;99.90
4725;DHT22;2376;53.544;10.226;2022-12-22T09:33:30;10.40;99.90
4725;DHT22;2376;53.544;10.226;2022-12-22T09:35:57;10.40;99.90
4725;DHT22;2376;53.544;10.226;2022-12-22T09:38:25;10.40;99.90
4725;DHT22;2376;53.544;10.226;2022-12-22T09:40:52;10.40;99.90
4725;DHT22;2376;53.544;10.226;2022-12-22T09:43:24;10.40;99.90
4725;DHT22;2376;53.544;10.226;2022-12-22T09:45:54;10.40;99.90
4725;DHT22;2376;53.544;10.226;2022-12-22T09:48:24;10.40;99.90
4725;DHT22;2376;53.544;10.226;2022-12-22T09:50:54;10.40;99.90
4725;DHT22;2376;53.544;10.226;2022-12-22T09:53:22;10.50;99.90
4725;DHT22;2376;53.544;10.226;2022-12-22T09:55:50;10.50;99.90
4725;DHT22;2376;53.544;10.226;2022-12-22T09:58:23;10.50;99.90
4725;DHT22;2376;53.544;10.226;2022-12-22T10:00:55;10.40;99.90
4725;DHT22;2376;53.544;10.226;2022-12-22T10:03:31;10.50;99.90
4725;DHT22;2376;53.544;10.226;2022-12-22T10:06:04;10.50;99.90
4725;DHT22;2376;53.544;10.226;2022-12-22T10:08:35;10.60;99.90
4725;DHT22;2376;53.544;10.226;2022-12-22T10:11:02;10.50;99.90
4725;DHT22;2376;53.544;10.226;2022-12-22T10:13:29;10.60;99.90
4725;DHT22;2376;53.544;10.226;2022-12-22T10:15:58;10.60;99.90
4725;DHT22;2376;53.544;10.226;2022-12-22T10:18:26;10.60;99.90
4725;DHT22;2376;53.544;10.226;2022-12-22T10:21:08;10.60;99.90
4725;DHT22;2376;53.544;10.226;2022-12-22T10:23:38;10.60;99.90
4725;DHT22;2376;53.544;10.226;2022-12-22T10:26:08;10.60;99.90
4725;DHT22;2376;53.544;10.226;2022-12-22T10:28:37;10.60;99.90
4725;DHT22;2376;53.544;10.226;2022-12-22T10:31:14;10.70;99.90
4725;DHT22;2376;53.544;10.226;2022-12-22T10:33:42;10.70;99.90
4725;DHT22;2376;53.544;10.226;2022-12-22T10:36:11;10.70;99.90
4725;DHT22;2376;53.544;10.226;2022-12-22T10:38:51;10.70;99.90
4725;DHT22;2376;53.544;10.226;2022-12-22T10:41:19;10.70;99.90
4725;DHT22;2376;53.544;10.226;2022-12-22T10:43:49;10.70;99.90
4725;DHT22;2376;53.544;10.226;2022-12-22T10:46:18;10.70;99.90
4725;DHT22;2376;53.544;10.226;2022-12-22T10:48:45;10.70;99.90
4725;DHT22;2376;53.544;10.226;2022-12-22T10:51:13;10.70;99.90
4725;DHT22;2376;53.544;10.226;2022-12-22T10:53:43;10.70;99.90
4725;DHT22;2376;53.544;10.226;2022-12-22T10:56:20;10.70;99.90
4725;DHT22;2376;53.544;10.226;2022-12-22T10:58:49;10.70;99.90
4725;DHT22;2376;53.544;10.226;2022-12-22T11:01:25;10.70;99.90
4725;DHT22;2376;53.544;10.226;2022-12-22T11:03:52;10.70;99.90
4725;DHT22;2376;53.544;10.226;2022-12-22T11:06:19;10.70;99.90
4725;DHT22;2376;53.544;10.226;2022-12-22T11:08:46;10.70;99.90
4725;DHT22;2376;53.544;10.226;2022-12-22T11:11:21;10.70;99.90
4725;DHT22;2376;53.544;10.226;2022-12-22T11:13:57;10.80;99.90
4725;DHT22;2376;53.544;10.226;2022-12-22T11:16:33;10.80;99.90
4725;DHT22;2376;53.544;10.226;2022-12-22T11:19:12;10.90;99.90
4725;DHT22;2376;53.544;10.226;2022-12-22T11:21:48;10.90;99.90
4725;DHT22;2376;53.544;10.226;2022-12-22T11:24:32;10.90;99.90
4725;DHT22;2376;53.544;10.226;2022-12-22T11:27:11;10.90;99.90
4725;DHT22;2376;53.544;10.226;2022-12-22T11:29:57;10.90;99.90
4725;DHT22;2376;53.544;10.226;2022-12-22T11:32:40;10.90;99.90
4725;DHT22;2376;53.544;10.226;2022-12-22T11:35:17;11.00;99.90
4725;DHT22;2376;53.544;10.226;2022-12-22T11:37:48;11.00;99.90
4725;DHT22;2376;53.544;10.226;2022-12-22T11:40:25;11.00;99.90
4725;DHT22;2376;53.544;10.226;2022-12-22T11:43:05;11.10;99.90
4725;DHT22;2376;53.544;10.226;2022-12-22T11:45:46;11.00;99.90
4725;DHT22;2376;53.544;10.226;2022-12-22T11:48:34;10.90;99.90
4725;DHT22;2376;53.544;10.226;2022-12-22T11:51:09;10.90;99.90
4725;DHT22;2376;53.544;10.226;2022-12-22T11:53:59;10.80;99.90
4725;DHT22;2376;53.544;10.226;2022-12-22T11:56:31;10.80;99.90
4725;DHT22;2376;53.544;10.226;2022-12-22T11:59:09;10.90;99.90
4725;DHT22;2376;53.544;10.226;2022-12-22T12:01:50;10.90;99.90
4725;DHT22;2376;53.544;10.226;2022-12-22T12:04:31;11.00;99.90
4725;DHT22;2376;53.544;10.226;2022-12-22T12:07:23;11.00;99.90
4725;DHT22;2376;53.544;10.226;2022-12-22T12:10:02;11.00;99.90
4725;DHT22;2376;53.544;10.226;2022-12-22T12:12:41;11.10;99.90
4725;DHT22;2376;53.544;10.226;2022-12-22T12:15:21;11.30;99.90
4725;DHT22;2376;53.544;10.226;2022-12-22T12:20:49;11.20;99.90
4725;DHT22;2376;53.544;10.226;2022-12-22T12:23:43;11.20;99.90
4725;DHT22;2376;53.544;10.226;2022-12-22T12:26:16;11.10;99.90
4725;DHT22;2376;53.544;10.226;2022-12-22T12:28:51;11.20;99.90
4725;DHT22;2376;53.544;10.226;2022-12-22T12:31:25;11.30;99.90
4725;DHT22;2376;53.544;10.226;2022-12-22T12:33:54;11.30;99.90
4725;DHT22;2376;53.544;10.226;2022-12-22T12:36:30;11.40;99.90
4725;DHT22;2376;53.544;10.226;2022-12-22T12:39:07;11.20;99.90
4725;DHT22;2376;53.544;10.226;2022-12-22T12:41:43;11.20;99.90
4725;DHT22;2376;53.544;10.226;2022-12-22T12:44:14;11.20;99.90
4725;DHT22;2376;53.544;10.226;2022-12-22T12:47:04;11.30;99.90
4725;DHT22;2376;53.544;10.226;2022-12-22T12:50:00;11.20;99.90
4725;DHT22;2376;53.544;10.226;2022-12-22T12:56:02;11.20;99.90
4725;DHT22;2376;53.544;10.226;2022-12-22T12:58:49;11.30;99.90
4725;DHT22;2376;53.544;10.226;2022-12-22T13:10:21;11.10;99.90
4725;DHT22;2376;53.544;10.226;2022-12-22T13:12:51;11.10;99.90
4725;DHT22;2376;53.544;10.226;2022-12-22T13:15:29;11.20;99.90
4725;DHT22;2376;53.544;10.226;2022-12-22T13:17:56;11.30;99.90
4725;DHT22;2376;53.544;10.226;2022-12-22T13:20:26;11.30;99.90
4725;DHT22;2376;53.544;10.226;2022-12-22T13:22:55;11.40;99.90
4725;DHT22;2376;53.544;10.226;2022-12-22T13:25:23;11.40;99.90
4725;DHT22;2376;53.544;10.226;2022-12-22T13:27:54;11.50;99.90
4725;DHT22;2376;53.544;10.226;2022-12-22T13:30:23;11.50;99.90
4725;DHT22;2376;53.544;10.226;2022-12-22T13:32:50;11.40;99.90
4725;DHT22;2376;53.544;10.226;2022-12-22T13:35:20;11.40;99.90
4725;DHT22;2376;53.544;10.226;2022-12-22T13:37:49;11.30;99.90
4725;DHT22;2376;53.544;10.226;2022-12-22T13:40:20;11.30;99.90
4725;DHT22;2376;53.544;10.226;2022-12-22T13:42:50;11.20;99.90
4725;DHT22;2376;53.544;10.226;2022-12-22T13:45:36;11.20;99.90
4725;DHT22;2376;53.544;10.226;2022-12-22T13:48:08;11.20;99.90
4725;DHT22;2376;53.544;10.226;2022-12-22T13:50:41;11.20;99.90
4725;DHT22;2376;53.544;10.226;2022-12-22T13:53:13;11.20;99.90
4725;DHT22;2376;53.544;10.226;2022-12-22T13:55:44;11.20;99.90
4725;DHT22;2376;53.544;10.226;2022-12-22T13:58:23;11.30;99.90
4725;DHT22;2376;53.544;10.226;2022-12-22T14:01:02;11.30;99.90
4725;DHT22;2376;53.544;10.226;2022-12-22T14:03:29;11.30;99.90
4725;DHT22;2376;53.544;10.226;2022-12-22T14:05:56;11.30;99.90
4725;DHT22;2376;53.544;10.226;2022-12-22T14:08:22;11.30;99.90
4725;DHT22;2376;53.544;10.226;2022-12-22T14:10:50;11.30;99.90
4725;DHT22;2376;53.544;10.226;2022-12-22T14:13:21;11.30;99.90
4725;DHT22;2376;53.544;10.226;2022-12-22T14:15:59;11.40;99.90
4725;DHT22;2376;53.544;10.226;2022-12-22T14:18:27;11.30;99.90
4725;DHT22;2376;53.544;10.226;2022-12-22T14:20:55;11.30;99.90
4725;DHT22;2376;53.544;10.226;2022-12-22T14:23:24;11.30;99.90
4725;DHT22;2376;53.544;10.226;2022-12-22T14:25:53;11.30;99.90
4725;DHT22;2376;53.544;10.226;2022-12-22T14:28:23;11.20;99.90
4725;DHT22;2376;53.544;10.226;2022-12-22T14:30:52;11.30;99.90
4725;DHT22;2376;53.544;10.226;2022-12-22T14:33:30;11.20;99.90
4725;DHT22;2376;53.544;10.226;2022-12-22T14:36:14;11.10;99.90
4725;DHT22;2376;53.544;10.226;2022-12-22T14:38:42;11.10;99.90
4725;DHT22;2376;53.544;10.226;2022-12-22T14:41:11;11.10;99.90
4725;DHT22;2376;53.544;10.226;2022-12-22T14:43:59;11.10;99.90
4725;DHT22;2376;53.544;10.226;2022-12-22T14:46:26;11.10;99.90
4725;DHT22;2376;53.544;10.226;2022-12-22T14:48:57;11.00;99.90
4725;DHT22;2376;53.544;10.226;2022-12-22T14:51:24;11.00;99.90
4725;DHT22;2376;53.544;10.226;2022-12-22T14:53:53;11.00;99.90
4725;DHT22;2376;53.544;10.226;2022-12-22T14:56:21;10.90;99.90
4725;DHT22;2376;53.544;10.226;2022-12-22T14:58:49;10.90;99.90
4725;DHT22;2376;53.544;10.226;2022-12-22T15:01:19;10.80;99.90
4725;DHT22;2376;53.544;10.226;2022-12-22T15:04:00;10.80;99.90
4725;DHT22;2376;53.544;10.226;2022-12-22T15:06:36;10.80;99.90
4725;DHT22;2376;53.544;10.226;2022-12-22T15:09:23;10.70;99.90
4725;DHT22;2376;53.544;10.226;2022-12-22T15:11:53;10.70;99.90
4725;DHT22;2376;53.544;10.226;2022-12-22T15:14:22;10.60;99.90
4725;DHT22;2376;53.544;10.226;2022-12-22T15:16:51;10.60;99.90
4725;DHT22;2376;53.544;10.226;2022-12-22T15:19:21;10.70;99.90
4725;DHT22;2376;53.544;10.226;2022-12-22T15:21:48;10.60;99.90
4725;DHT22;2376;53.544;10.226;2022-12-22T15:24:16;10.70;99.90
4725;DHT22;2376;53.544;10.226;2022-12-22T15:26:44;10.60;99.90
4725;DHT22;2376;53.544;10.226;2022-12-22T15:29:11;10.70;99.90
4725;DHT22;2376;53.544;10.226;2022-12-22T15:31:40;10.70;99.90
4725;DHT22;2376;53.544;10.226;2022-12-22T15:34:11;10.80;99.90
4725;DHT22;2376;53.544;10.226;2022-12-22T15:36:40;10.80;99.90
4725;DHT22;2376;53.544;10.226;2022-12-22T15:39:12;10.80;99.90
4725;DHT22;2376;53.544;10.226;2022-12-22T15:41:39;10.80;99.90
4725;DHT22;2376;53.544;10.226;2022-12-22T15:44:06;10.80;99.90
4725;DHT22;2376;53.544;10.226;2022-12-22T15:46:33;10.80;99.90
4725;DHT22;2376;53.544;10.226;2022-12-22T15:49:00;10.70;99.90
4725;DHT22;2376;53.544;10.226;2022-12-22T15:51:29;10.70;99.90
4725;DHT22;2376;53.544;10.226;2022-12-22T15:53:57;10.60;99.90
4725;DHT22;2376;53.544;10.226;2022-12-22T15:56:26;10.60;99.90
4725;DHT22;2376;53.544;10.226;2022-12-22T15:58:55;10.60;99.90
4725;DHT22;2376;53.544;10.226;2022-12-22T16:01:22;10.60;99.90
4725;DHT22;2376;53.544;10.226;2022-12-22T16:03:49;10.70;99.90
4725;DHT22;2376;53.544;10.226;2022-12-22T16:06:17;10.60;99.90
4725;DHT22;2376;53.544;10.226;2022-12-22T16:08:48;10.60;99.90
4725;DHT22;2376;53.544;10.226;2022-12-22T16:11:17;10.60;99.90
4725;DHT22;2376;53.544;10.226;2022-12-22T16:13:44;10.60;99.90
4725;DHT22;2376;53.544;10.226;2022-12-22T16:16:10;10.60;99.90
4725;DHT22;2376;53.544;10.226;2022-12-22T16:18:37;10.50;99.90
4725;DHT22;2376;53.544;10.226;2022-12-22T16:21:06;10.40;99.90
4725;DHT22;2376;53.544;10.226;2022-12-22T16:23:34;10.50;99.90
4725;DHT22;2376;53.544;10.226;2022-12-22T16:26:02;10.50;99.90
4725;DHT22;2376;53.544;10.226;2022-12-22T16:28:31;10.50;99.90
4725;DHT22;2376;53.544;10.226;2022-12-22T16:30:59;10.50;99.90
4725;DHT22;2376;53.544;10.226;2022-12-22T16:33:26;10.50;99.90
4725;DHT22;2376;53.544;10.226;2022-12-22T16:35:53;10.40;99.90
4725;DHT22;2376;53.544;10.226;2022-12-22T16:38:19;10.40;99.90
4725;DHT22;2376;53.544;10.226;2022-12-22T16:40:48;10.30;99.90
4725;DHT22;2376;53.544;10.226;2022-12-22T16:43:21;10.30;99.90
4725;DHT22;2376;53.544;10.226;2022-12-22T16:45:50;10.30;99.90